Terminal Aerodrome Forecast
Issued by NWS

Home | Current Version | Previous Version | Text Only | Print | Product List | Glossary On
Versions: 1 2 3 4 5 6 7 8 9 10 11 12 13 14 15 16
000
FTUS43 KDTX 220500
TAFMBS
TAF
KMBS 220530Z 2206/2306 33012G20KT P6SM OVC035
     FM221000 32007KT P6SM BKN035
      TEMPO 2213/2216 SCT035
     FM221600 28008KT P6SM SKC
     FM230000 26004KT P6SM SKC=

USA.gov is the U.S. government's official web portal to all federal, state and local government web resources and services.